Time;durP1;ratioP1;P1;durP2;ratioP2;P2;SDS_P1;SDS_P2;PMS_P1;PMS_P2;Temp;Humidity;BMP_temperature;BMP_pressure;BME280_temperature;BME280_humidity;BME280_pressure;Samples;Min_cycle;Max_cycle;Signal;HPM_P1;HPM_P2
2023/04/23 00:02:01;;;;;;;73.88;35.95;;;;;;;7.13;100.00;100518.91;5094851;28;20044;-77
2023/04/23 00:04:29;;;;;;;77.75;39.22;;;;;;;7.11;100.00;100513.78;5078563;28;20031;-76
2023/04/23 00:10:17;;;;;;;74.85;36.53;;;;;;;7.00;100.00;100482.47;5098328;28;20544;-76
2023/04/23 00:12:42;;;;;;;76.93;37.50;;;;;;;7.17;100.00;100503.38;5094283;28;20020;-76
2023/04/23 00:15:08;;;;;;;84.03;38.53;;;;;;;7.07;100.00;100485.97;5094083;28;20173;-75
2023/04/23 00:17:34;;;;;;;82.40;37.22;;;;;;;7.15;100.00;100496.41;5096113;28;20020;-76
2023/04/23 00:23:20;;;;;;;69.07;33.13;;;;;;;7.10;100.00;100498.03;5099245;28;20085;-76
2023/04/23 00:25:46;;;;;;;73.97;34.53;;;;;;;7.10;100.00;100498.03;5078228;28;20036;-76
2023/04/23 00:35:31;;;;;;;67.43;32.20;;;;;;;7.02;100.00;100509.69;5097009;28;20046;-77
2023/04/23 00:37:56;;;;;;;65.40;33.17;;;;;;;6.98;100.00;100505.78;5094812;28;20047;-77
2023/04/23 00:43:45;;;;;;;72.97;34.70;;;;;;;6.91;100.00;100483.66;5100047;28;20034;-75
2023/04/23 00:46:12;;;;;;;76.18;37.58;;;;;;;6.87;100.00;100482.41;5080634;28;20436;-75
2023/04/23 00:48:39;;;;;;;72.70;36.05;;;;;;;6.87;100.00;100485.06;5074203;28;20040;-75
2023/04/23 00:54:26;;;;;;;82.20;36.22;;;;;;;6.80;100.00;100476.25;5094109;28;20050;-75
2023/04/23 01:00:20;;;;;;;82.45;36.25;;;;;;;6.80;100.00;100471.75;5096064;28;20524;-74
2023/04/23 01:06:07;;;;;;;79.15;35.08;;;;;;;6.82;100.00;100458.28;5094409;28;20185;-75
2023/04/23 01:08:34;;;;;;;80.85;35.50;;;;;;;6.85;100.00;100471.16;5075719;28;20496;-75
2023/04/23 01:11:02;;;;;;;75.28;35.30;;;;;;;6.89;100.00;100459.13;5090867;28;20050;-75
2023/04/23 01:16:49;;;;;;;71.30;34.10;;;;;;;6.81;100.00;100438.03;5093251;28;20047;-76
2023/04/23 01:19:14;;;;;;;70.22;33.92;;;;;;;6.81;100.00;100440.69;5092252;28;20044;-76
2023/04/23 01:21:40;;;;;;;70.00;33.30;;;;;;;6.83;100.00;100447.44;5080476;28;20024;-76
2023/04/23 01:24:06;;;;;;;69.25;32.08;;;;;;;6.85;100.00;100444.59;5074812;28;20376;-76
2023/04/23 01:29:54;;;;;;;66.05;32.95;;;;;;;6.81;100.00;100443.34;5094865;28;20063;-76
2023/04/23 01:32:20;;;;;;;67.47;33.70;;;;;;;6.77;100.00;100442.94;5097527;28;20032;-75
2023/04/23 01:34:46;;;;;;;67.47;32.17;;;;;;;6.75;100.00;100437.00;5097984;28;20032;-76
2023/04/23 01:37:13;;;;;;;72.68;35.72;;;;;;;6.74;100.00;100446.00;5094134;28;20065;-75
2023/04/23 01:43:00;;;;;;;65.82;32.33;;;;;;;6.79;100.00;100440.91;5096587;28;20105;-75
2023/04/23 01:45:25;;;;;;;77.30;34.88;;;;;;;6.76;100.00;100440.47;5094514;28;20460;-75
2023/04/23 01:47:51;;;;;;;66.53;32.25;;;;;;;6.77;100.00;100431.50;5094095;28;20153;-75
2023/04/23 01:50:17;;;;;;;67.88;32.53;;;;;;;6.88;100.00;100449.50;5095681;28;20040;-76
2023/04/23 01:52:44;;;;;;;66.53;31.23;;;;;;;6.87;100.00;100437.25;5079308;28;20494;-75
2023/04/23 01:55:09;;;;;;;65.70;32.72;;;;;;;6.91;100.00;100445.63;5075732;28;20040;-75
2023/04/23 02:00:56;;;;;;;65.13;32.50;;;;;;;6.90;100.00;100444.00;5098190;28;20039;-75
2023/04/23 02:03:22;;;;;;;65.10;33.58;;;;;;;6.91;100.00;100438.47;5080167;28;20395;-75
2023/04/23 02:05:49;;;;;;;73.90;38.13;;;;;;;6.89;100.00;100439.69;5097123;28;20032;-75
2023/04/23 02:08:14;;;;;;;58.05;31.75;;;;;;;6.88;100.00;100440.72;5075813;28;20035;-76
2023/04/23 02:10:40;;;;;;;58.05;30.17;;;;;;;6.87;100.00;100447.88;5098943;28;20031;-75
2023/04/23 02:13:05;;;;;;;62.08;33.10;;;;;;;6.81;100.00;100432.72;5094055;28;20044;-75
2023/04/23 02:15:31;;;;;;;73.68;35.50;;;;;;;6.77;100.00;100432.31;5079052;28;20043;-75
2023/04/23 02:17:56;;;;;;;63.65;31.80;;;;;;;6.72;100.00;100428.63;5080001;28;20031;-76
2023/04/23 02:20:22;;;;;;;56.78;30.55;;;;;;;6.67;100.00;100420.44;5094406;28;20469;-77
2023/04/23 02:22:47;;;;;;;60.00;31.15;;;;;;;6.70;100.00;100423.50;5079686;28;20035;-76
2023/04/23 02:25:15;;;;;;;56.65;28.92;;;;;;;6.71;100.00;100419.81;5097452;28;20111;-76
2023/04/23 02:27:41;;;;;;;55.28;31.08;;;;;;;6.74;100.00;100426.56;5077881;28;20077;-76
2023/04/23 02:30:08;;;;;;;63.47;33.08;;;;;;;6.72;100.00;100420.66;5078628;28;20035;-75
2023/04/23 02:32:33;;;;;;;63.05;30.50;;;;;;;6.76;100.00;100422.69;5092512;28;20051;-75
2023/04/23 02:35:00;;;;;;;56.67;31.30;;;;;;;6.81;100.00;100424.75;5079322;28;20027;-76
2023/04/23 02:37:26;;;;;;;56.95;29.42;;;;;;;6.83;100.00;100417.41;5078993;28;20403;-76
2023/04/23 02:39:51;;;;;;;52.95;27.67;;;;;;;6.93;100.00;100431.13;5092475;28;20051;-75
2023/04/23 02:42:16;;;;;;;51.10;27.92;;;;;;;6.91;100.00;100422.53;5094999;28;20036;-75
2023/04/23 02:44:42;;;;;;;55.00;31.42;;;;;;;6.90;100.00;100412.91;5089620;28;20107;-75
2023/04/23 02:47:07;;;;;;;52.10;28.27;;;;;;;6.89;100.00;100416.59;5095158;28;20028;-76
2023/04/23 02:49:32;;;;;;;53.92;28.48;;;;;;;6.89;100.00;100423.75;5095502;28;20059;-75
2023/04/23 02:51:58;;;;;;;54.80;30.17;;;;;;;6.90;100.00;100426.19;5091368;28;20484;-75
2023/04/23 02:57:45;;;;;;;50.50;26.88;;;;;;;6.91;100.00;100417.22;5090900;28;20040;-76
2023/04/23 03:00:11;;;;;;;50.13;27.58;;;;;;;6.97;100.00;100419.09;5079123;28;20396;-76
2023/04/23 03:02:36;;;;;;;46.53;27.05;;;;;;;7.00;100.00;100416.03;5076905;28;20308;-76
2023/04/23 03:05:02;;;;;;;43.47;27.00;;;;;;;7.07;100.00;100424.81;5093490;28;20040;-75
2023/04/23 03:07:27;;;;;;;45.58;25.98;;;;;;;7.08;100.00;100420.34;5095500;28;20510;-75
2023/04/23 03:09:52;;;;;;;47.17;26.55;;;;;;;7.11;100.00;100407.44;5090377;28;20105;-75
2023/04/23 03:12:18;;;;;;;46.92;25.63;;;;;;;7.15;100.00;100398.03;5076047;28;20115;-75
2023/04/23 03:14:43;;;;;;;42.35;24.92;;;;;;;7.22;100.00;100414.00;5076506;28;20032;-76
2023/04/23 03:20:30;;;;;;;46.05;26.33;;;;;;;7.26;100.00;100394.00;5095021;28;20055;-75
2023/04/23 03:22:56;;;;;;;40.97;23.70;;;;;;;7.26;100.00;100396.66;5094628;28;20040;-75
2023/04/23 03:25:23;;;;;;;45.83;26.05;;;;;;;7.24;100.00;100397.88;5078869;28;20020;-75
2023/04/23 03:27:48;;;;;;;38.85;23.05;;;;;;;7.26;100.00;100388.66;5077299;28;20044;-75
2023/04/23 03:30:13;;;;;;;41.73;26.60;;;;;;;7.24;100.00;100401.34;5077077;28;20108;-75
2023/04/23 03:32:39;;;;;;;39.92;23.73;;;;;;;7.25;100.00;100394.19;5077842;28;20277;-75
2023/04/23 03:35:04;;;;;;;41.60;23.73;;;;;;;7.28;100.00;100399.09;5077032;28;20199;-75
2023/04/23 03:37:30;;;;;;;45.05;25.05;;;;;;;7.35;100.00;100400.72;5081616;28;20437;-75
2023/04/23 03:39:55;;;;;;;45.50;25.80;;;;;;;7.38;100.00;100391.53;5100447;28;20027;-75
2023/04/23 03:45:42;;;;;;;44.45;26.60;;;;;;;7.52;100.00;100393.19;5099807;28;20368;-75
2023/04/23 03:48:07;;;;;;;39.72;24.50;;;;;;;7.56;100.00;100393.59;5096610;28;20136;-76
2023/04/23 03:50:37;;;;;;;38.17;23.38;;;;;;;7.60;100.00;100397.47;5081357;28;20461;-75
2023/04/23 03:53:03;;;;;;;40.17;25.95;;;;;;;7.64;100.00;100396.84;5095501;28;20512;-75
2023/04/23 03:55:28;;;;;;;43.58;26.85;;;;;;;7.67;100.00;100404.41;5081744;28;20024;-76
2023/04/23 03:57:54;;;;;;;38.63;23.52;;;;;;;7.69;100.00;100394.38;5080219;28;20036;-76
2023/04/23 04:00:19;;;;;;;43.72;25.58;;;;;;;7.66;100.00;100391.31;5093834;28;20483;-75
2023/04/23 04:02:45;;;;;;;40.72;23.58;;;;;;;7.71;100.00;100397.66;5079612;28;20540;-75
2023/04/23 04:05:10;;;;;;;39.70;24.38;;;;;;;7.70;100.00;100401.34;5095442;28;20086;-75
2023/04/23 04:07:36;;;;;;;40.08;23.20;;;;;;;7.72;100.00;100399.28;5079747;28;20027;-75
2023/04/23 04:10:02;;;;;;;39.25;25.65;;;;;;;7.72;100.00;100401.94;5082303;28;20032;-76
2023/04/23 04:12:27;;;;;;;38.45;23.65;;;;;;;7.73;100.00;100406.25;5095091;28;20036;-75
2023/04/23 04:14:53;;;;;;;38.65;24.50;;;;;;;7.68;100.00;100390.09;5098517;28;20055;-75
2023/04/23 04:17:18;;;;;;;42.38;25.33;;;;;;;7.74;100.00;100405.22;5079704;28;20028;-76
2023/04/23 04:19:43;;;;;;;41.28;23.70;;;;;;;7.70;100.00;100406.66;5096089;28;20039;-75
2023/04/23 04:22:09;;;;;;;40.50;23.93;;;;;;;7.69;100.00;100405.03;5081328;28;20028;-76
2023/04/23 04:24:34;;;;;;;41.00;24.25;;;;;;;7.69;100.00;100406.88;5094295;28;20332;-76
2023/04/23 04:27:00;;;;;;;40.83;25.17;;;;;;;7.69;100.00;100410.34;5098938;28;20027;-76
2023/04/23 04:29:26;;;;;;;42.75;26.02;;;;;;;7.72;100.00;100415.25;5080583;28;20036;-75
2023/04/23 04:31:53;;;;;;;39.03;25.25;;;;;;;7.76;100.00;100415.66;5093309;28;20047;-75
2023/04/23 04:34:19;;;;;;;41.17;26.63;;;;;;;7.71;100.00;100408.28;5099967;28;20059;-76
2023/04/23 04:36:44;;;;;;;43.42;26.45;;;;;;;7.69;100.00;100397.03;5094187;28;20056;-75
2023/04/23 04:39:09;;;;;;;44.85;27.27;;;;;;;7.78;100.00;100414.44;5099889;28;20020;-75
2023/04/23 04:41:35;;;;;;;34.60;21.67;;;;;;;7.76;100.00;100400.50;5098055;28;20036;-76
2023/04/23 04:47:22;;;;;;;37.95;23.98;;;;;;;7.76;100.00;100411.16;5097926;28;20054;-75
2023/04/23 04:49:48;;;;;;;36.35;23.58;;;;;;;7.74;100.00;100407.06;5073960;28;20024;-75
2023/04/23 04:52:13;;;;;;;38.10;23.75;;;;;;;7.71;100.00;100407.47;5095942;28;20457;-75
2023/04/23 04:54:40;;;;;;;38.90;23.52;;;;;;;7.65;100.00;100406.47;5093865;28;20081;-76
2023/04/23 04:57:05;;;;;;;37.15;22.42;;;;;;;7.61;100.00;100399.91;5091771;28;20067;-75
2023/04/23 04:59:30;;;;;;;35.70;22.93;;;;;;;7.58;100.00;100405.66;5095909;28;20507;-75
2023/04/23 05:01:56;;;;;;;37.28;22.63;;;;;;;7.57;100.00;100405.88;5090451;28;20347;-75
2023/04/23 05:04:21;;;;;;;41.40;25.65;;;;;;;7.58;100.00;100410.16;5079134;28;20017;-75
2023/04/23 05:06:46;;;;;;;43.53;25.38;;;;;;;7.69;100.00;100414.84;5097413;28;20039;-76
2023/04/23 05:09:12;;;;;;;45.85;28.27;;;;;;;7.91;100.00;100402.97;5073974;28;20119;-76
2023/04/23 05:14:58;;;;;;;39.47;23.42;;;;;;;8.43;100.00;100411.88;5094020;28;20079;-76
2023/04/23 05:17:23;;;;;;;34.77;22.73;;;;;;;8.41;100.00;100415.78;5077699;28;20449;-75
2023/04/23 05:19:49;;;;;;;31.20;21.80;;;;;;;8.32;100.00;100407.16;5092152;28;20286;-76
2023/04/23 05:22:17;;;;;;;34.90;21.00;;;;;;;8.40;100.00;100422.97;5075030;28;20289;-76
2023/04/23 05:24:42;;;;;;;32.58;21.65;;;;;;;8.49;100.00;100420.88;5096070;28;20031;-76
2023/04/23 05:27:07;;;;;;;31.73;21.27;;;;;;;8.80;100.00;100410.28;5091414;28;20044;-75
2023/04/23 05:29:32;;;;;;;30.50;20.83;;;;;;;8.87;100.00;100404.91;5076981;28;20028;-75
2023/04/23 05:31:58;;;;;;;28.37;18.57;;;;;;;8.96;100.00;100422.28;5076916;28;20613;-75
2023/04/23 05:34:23;;;;;;;30.15;20.55;;;;;;;8.94;100.00;100419.81;5074115;28;20275;-75
2023/04/23 05:36:48;;;;;;;32.13;20.50;;;;;;;8.93;100.00;100420.84;5076290;28;20060;-75
2023/04/23 05:39:13;;;;;;;30.83;20.57;;;;;;;8.87;100.00;100415.56;5072479;28;20659;-75
2023/04/23 05:41:39;;;;;;;27.50;19.30;;;;;;;8.92;100.00;100432.56;5095009;28;20273;-75
2023/04/23 05:44:04;;;;;;;30.42;22.33;;;;;;;8.88;100.00;100418.03;5096249;28;20281;-76
2023/04/23 05:46:30;;;;;;;29.38;19.33;;;;;;;9.00;100.00;100419.00;5090021;28;20097;-75
2023/04/23 05:48:55;;;;;;;32.15;21.13;;;;;;;9.05;100.00;100406.88;5076649;28;20118;-75
2023/04/23 05:51:21;;;;;;;31.90;22.77;;;;;;;9.28;100.00;100420.47;5090587;28;20123;-75
2023/04/23 05:53:46;;;;;;;32.05;21.90;;;;;;;9.60;100.00;100414.06;5096529;28;20097;-75
2023/04/23 05:56:11;;;;;;;30.67;21.67;;;;;;;10.15;100.00;100408.00;5096972;28;20062;-76
2023/04/23 05:58:37;;;;;;;28.50;22.20;;;;;;;10.79;100.00;100417.34;5092261;28;20048;-75
2023/04/23 06:01:03;;;;;;;26.67;19.92;;;;;;;11.01;100.00;100415.00;5096347;28;20278;-76
2023/04/23 06:03:29;;;;;;;24.35;18.77;;;;;;;10.76;100.00;100418.63;5094466;28;20028;-76
2023/04/23 06:05:54;;;;;;;25.70;17.83;;;;;;;10.70;100.00;100419.53;5092903;28;20170;-75
2023/04/23 06:11:42;;;;;;;21.65;16.23;;;;;;;12.14;100.00;100408.63;5097095;28;20387;-75
2023/04/23 06:14:07;;;;;;;20.75;14.93;;;;;;;12.64;100.00;100417.75;5078509;28;20020;-76
2023/04/23 06:16:32;;;;;;;20.00;15.48;;;;;;;13.18;100.00;100412.91;5091869;28;20472;-76
2023/04/23 06:18:58;;;;;;;19.07;15.43;;;;;;;13.29;100.00;100414.69;5096178;28;20468;-75
2023/04/23 06:21:23;;;;;;;19.50;14.60;;;;;;;13.43;100.00;100407.16;5094023;28;20270;-75
2023/04/23 06:23:49;;;;;;;17.20;13.57;;;;;;;13.82;100.00;100405.34;5091364;28;20100;-76
2023/04/23 06:29:36;;;;;;;14.55;11.75;;;;;;;14.40;100.00;100387.84;5096246;28;20396;-75
2023/04/23 06:32:02;;;;;;;19.50;12.77;;;;;;;14.80;100.00;100394.81;5075936;28;20107;-75
2023/04/23 06:34:27;;;;;;;15.77;13.20;;;;;;;14.93;100.00;100380.13;5075092;28;20758;-75
2023/04/23 06:36:52;;;;;;;18.13;12.32;;;;;;;15.29;100.00;100386.66;5089084;28;20047;-75
2023/04/23 06:39:18;;;;;;;17.17;13.13;;;;;;;15.96;100.00;100384.25;5092616;28;20056;-76
2023/04/23 06:41:43;;;;;;;15.23;12.43;;;;;;;16.55;100.00;100385.88;5089215;28;20290;-75
2023/04/23 06:44:08;;;;;;;17.23;11.75;;;;;;;16.81;100.00;100387.59;5094813;28;20309;-75
2023/04/23 06:46:34;;;;;;;14.80;11.95;;;;;;;16.96;98.55;100387.63;5092425;28;20035;-76
2023/04/23 06:48:59;;;;;;;15.75;11.85;;;;;;;17.04;94.91;100381.69;5070311;28;20130;-76
2023/04/23 06:51:26;;;;;;;15.23;11.10;;;;;;;16.93;99.41;100390.06;5092253;28;20024;-76
2023/04/23 06:57:13;;;;;;;15.35;10.07;;;;;;;17.30;97.33;100381.72;5092855;28;20110;-75
2023/04/23 06:59:38;;;;;;;15.73;10.30;;;;;;;18.03;97.92;100376.81;5087800;28;20041;-75
2023/04/23 07:02:04;;;;;;;12.40;9.90;;;;;;;18.37;88.92;100378.88;5092046;28;20596;-75
2023/04/23 07:04:29;;;;;;;13.35;9.95;;;;;;;19.26;88.06;100377.03;5091912;28;20284;-75
2023/04/23 07:06:54;;;;;;;12.30;10.00;;;;;;;19.61;81.52;100379.47;5069762;28;20036;-77
2023/04/23 07:09:20;;;;;;;17.00;10.30;;;;;;;19.11;81.02;100386.91;5073847;28;20281;-75
2023/04/23 07:11:45;;;;;;;13.88;9.45;;;;;;;18.93;82.43;100382.13;5091397;28;20323;-76
2023/04/23 07:14:10;;;;;;;12.27;9.02;;;;;;;17.88;85.32;100374.13;5087845;28;20040;-75
2023/04/23 07:16:35;;;;;;;12.90;8.53;;;;;;;17.80;90.24;100374.69;5092096;28;20020;-75
2023/04/23 07:19:01;;;;;;;15.00;8.68;;;;;;;18.10;87.55;100363.78;5087032;28;20331;-75
2023/04/23 07:21:27;;;;;;;11.15;8.07;;;;;;;18.58;88.03;100375.78;5073742;28;20031;-75
2023/04/23 07:23:55;;;;;;;10.18;8.70;;;;;;;18.69;85.91;100376.56;5073907;28;20464;-76
2023/04/23 07:26:21;;;;;;;10.85;7.97;;;;;;;18.64;87.91;100370.38;5069639;28;20066;-76
2023/04/23 07:28:47;;;;;;;11.68;7.95;;;;;;;19.73;79.75;100379.09;5073490;28;20400;-75
2023/04/23 07:31:13;;;;;;;10.63;8.25;;;;;;;18.82;81.40;100370.56;5087656;28;20051;-76
2023/04/23 07:33:38;;;;;;;11.75;7.22;;;;;;;19.27;80.99;100374.03;5091818;28;20028;-76
2023/04/23 07:36:03;;;;;;;10.40;7.50;;;;;;;19.68;77.59;100358.25;5073681;28;20066;-75
2023/04/23 07:38:29;;;;;;;11.48;7.05;;;;;;;19.85;73.46;100370.56;5069473;28;20043;-75
2023/04/23 07:40:54;;;;;;;12.47;6.63;;;;;;;18.34;80.54;100366.69;5091785;28;20024;-75
2023/04/23 07:43:20;;;;;;;10.95;6.50;;;;;;;18.19;85.51;100367.53;5087168;28;20299;-75
2023/04/23 07:45:45;;;;;;;9.57;6.82;;;;;;;18.69;83.86;100359.50;5091722;28;20722;-75
2023/04/23 07:48:10;;;;;;;10.10;6.63;;;;;;;19.41;77.30;100358.75;5092247;28;20031;-76
2023/04/23 07:50:36;;;;;;;10.52;7.03;;;;;;;20.46;78.94;100356.31;5087067;28;20474;-75
2023/04/23 07:53:01;;;;;;;11.52;6.22;;;;;;;22.09;70.10;100349.06;5073811;28;20025;-76
2023/04/23 07:55:27;;;;;;;9.02;5.78;;;;;;;22.47;64.66;100366.78;5089997;28;20028;-76
2023/04/23 07:57:52;;;;;;;11.80;6.13;;;;;;;21.91;65.92;100369.78;5070695;28;20089;-75
2023/04/23 08:00:18;;;;;;;9.52;5.20;;;;;;;21.09;68.32;100362.19;5091636;28;20039;-76
2023/04/23 08:02:43;;;;;;;10.70;5.53;;;;;;;19.74;72.38;100346.25;5086993;28;20136;-75
2023/04/23 08:05:08;;;;;;;9.65;5.30;;;;;;;20.34;73.11;100353.97;5094266;28;20267;-77
2023/04/23 08:07:34;;;;;;;7.68;5.00;;;;;;;20.94;71.16;100363.25;5074283;28;20038;-76
2023/04/23 08:10:03;;;;;;;8.77;5.57;;;;;;;20.79;73.24;100344.41;5074931;28;20043;-76
2023/04/23 08:12:29;;;;;;;9.65;5.07;;;;;;;22.35;67.95;100352.91;5094977;28;20476;-76
2023/04/23 08:14:54;;;;;;;12.13;5.43;;;;;;;21.78;66.67;100344.19;5072548;28;20040;-75
2023/04/23 08:17:19;;;;;;;7.63;4.87;;;;;;;21.23;67.71;100370.41;5094862;28;20180;-75
2023/04/23 08:19:45;;;;;;;10.67;4.90;;;;;;;19.60;73.61;100334.44;5074519;28;20062;-75
2023/04/23 08:25:32;;;;;;;11.90;4.88;;;;;;;20.61;69.10;100353.41;5094663;28;20305;-75
2023/04/23 08:27:57;;;;;;;9.97;5.40;;;;;;;19.36;72.20;100334.34;5071965;28;20044;-76
2023/04/23 08:30:23;;;;;;;7.80;4.57;;;;;;;21.10;74.22;100333.09;5094729;28;20312;-75
2023/04/23 08:32:55;;;;;;;10.50;4.75;;;;;;;21.89;64.80;100347.50;5090024;28;20404;-74
2023/04/23 08:35:22;;;;;;;10.57;4.90;;;;;;;21.18;66.78;100333.22;5094722;28;20468;-75
2023/04/23 08:37:48;;;;;;;8.18;4.70;;;;;;;21.90;65.50;100333.59;5094526;28;20054;-75
2023/04/23 08:40:13;;;;;;;7.43;3.97;;;;;;;21.92;64.01;100338.75;5089682;28;20044;-74
2023/04/23 08:42:49;;;;;;;8.43;5.10;;;;;;;21.29;66.12;100334.69;5094266;28;20021;-75
2023/04/23 08:45:14;;;;;;;11.48;4.30;;;;;;;21.54;63.22;100335.38;5071773;28;20095;-74
2023/04/23 08:47:43;;;;;;;10.30;4.40;;;;;;;20.64;64.60;100329.16;5094035;28;20488;-75
2023/04/23 08:50:16;;;;;;;10.23;3.92;;;;;;;20.89;69.13;100338.03;5094162;28;20752;-75
2023/04/23 08:52:48;;;;;;;7.45;4.18;;;;;;;20.95;65.78;100315.91;5089533;28;20044;-74
2023/04/23 08:55:14;;;;;;;11.05;4.50;;;;;;;20.49;65.75;100339.41;5075998;28;20472;-74
2023/04/23 08:57:40;;;;;;;8.30;3.80;;;;;;;20.99;69.82;100333.25;5089090;28;20127;-75
2023/04/23 09:03:28;;;;;;;9.10;3.72;;;;;;;19.75;67.27;100328.06;5094194;28;20388;-74
2023/04/23 09:05:53;;;;;;;8.53;3.00;;;;;;;19.92;67.55;100331.13;5093770;28;20020;-75
2023/04/23 09:08:20;;;;;;;11.48;3.70;;;;;;;20.63;63.87;100324.03;5093987;28;20297;-75
2023/04/23 09:10:45;;;;;;;4.75;3.40;;;;;;;20.82;64.76;100333.00;5071704;28;20039;-75
2023/04/23 09:13:12;;;;;;;5.93;2.67;;;;;;;19.11;73.64;100326.47;5093860;28;20356;-75
2023/04/23 09:15:42;;;;;;;8.35;3.38;;;;;;;19.04;73.07;100315.91;5088803;28;20140;-75
2023/04/23 09:18:08;;;;;;;9.38;3.38;;;;;;;19.40;69.78;100321.88;5075838;28;20035;-74
2023/04/23 09:23:55;;;;;;;11.00;2.88;;;;;;;19.70;71.65;100328.13;5094136;28;20455;-75
2023/04/23 09:26:21;;;;;;;8.10;2.80;;;;;;;19.44;68.93;100314.78;5075390;28;20076;-75
2023/04/23 09:28:52;;;;;;;8.13;2.92;;;;;;;19.87;70.29;100314.09;5088971;28;20072;-75
2023/04/23 09:34:40;;;;;;;5.70;2.55;;;;;;;19.66;63.95;100299.91;5093576;28;20551;-75
2023/04/23 09:40:27;;;;;;;6.18;2.78;;;;;;;19.14;66.71;100315.03;5089358;28;20438;-74
2023/04/23 09:46:14;;;;;;;8.80;2.67;;;;;;;22.60;59.12;100299.75;5093603;28;20289;-76
2023/04/23 09:52:06;;;;;;;9.50;2.75;;;;;;;20.86;58.00;100304.13;5089492;28;20384;-75
2023/04/23 09:54:31;;;;;;;6.05;2.50;;;;;;;19.52;61.05;100290.84;5093151;28;20031;-74
2023/04/23 09:57:00;;;;;;;6.63;2.30;;;;;;;19.46;66.39;100285.47;5070366;28;20049;-74
2023/04/23 10:02:52;;;;;;;7.90;3.22;;;;;;;19.03;65.40;100289.09;5090648;28;20096;-74
2023/04/23 10:05:20;;;;;;;5.83;2.77;;;;;;;18.57;64.52;100300.25;5091738;28;20418;-74
2023/04/23 10:11:07;;;;;;;7.13;2.35;;;;;;;17.27;73.17;100282.28;5093371;28;20047;-75
2023/04/23 10:17:02;;;;;;;7.60;3.28;;;;;;;17.45;72.43;100295.22;5089130;28;20097;-74
2023/04/23 10:22:52;;;;;;;6.22;3.03;;;;;;;17.22;74.42;100298.50;5093253;28;20094;-75
2023/04/23 10:25:18;;;;;;;8.88;3.15;;;;;;;17.28;79.44;100273.06;5074669;28;20024;-74
2023/04/23 10:31:08;;;;;;;6.65;2.70;;;;;;;18.15;73.28;100260.94;5093386;28;20085;-75
2023/04/23 10:33:34;;;;;;;8.52;2.85;;;;;;;18.87;74.75;100270.28;5070683;28;20044;-75
2023/04/23 10:36:00;;;;;;;8.75;2.97;;;;;;;18.53;76.63;100270.22;5074660;28;20164;-75
2023/04/23 10:41:47;;;;;;;10.27;3.13;;;;;;;18.16;76.71;100261.75;5093157;28;20063;-74
2023/04/23 10:44:15;;;;;;;8.02;3.00;;;;;;;17.82;76.96;100261.63;5073219;28;20016;-74
2023/04/23 10:46:52;;;;;;;9.95;2.80;;;;;;;17.62;77.96;100251.66;5090020;28;20032;-74
2023/04/23 10:49:18;;;;;;;4.63;2.47;;;;;;;17.36;76.21;100267.13;5074337;28;20484;-73
2023/04/23 10:55:15;;;;;;;6.65;2.95;;;;;;;16.86;78.95;100244.47;5092985;28;20043;-74
2023/04/23 10:57:59;;;;;;;4.38;2.35;;;;;;;17.23;81.49;100230.66;5070075;28;20032;-74
2023/04/23 11:00:40;;;;;;;6.50;2.75;;;;;;;18.19;78.08;100234.13;5073942;28;20097;-74
2023/04/23 11:06:46;;;;;;;6.13;2.53;;;;;;;18.54;76.46;100225.78;5088065;28;20042;-74
2023/04/23 11:09:39;;;;;;;7.10;2.75;;;;;;;18.52;73.66;100238.00;5069910;28;20593;-74
2023/04/23 11:15:29;;;;;;;5.50;2.85;;;;;;;17.75;79.02;100215.16;5088457;28;20051;-74
2023/04/23 11:21:16;;;;;;;6.32;2.60;;;;;;;17.65;81.58;100218.69;5092583;28;20042;-73
2023/04/23 11:27:05;;;;;;;8.80;2.85;;;;;;;17.39;80.41;100204.44;5089004;28;20039;-73
2023/04/23 11:29:32;;;;;;;6.55;3.10;;;;;;;17.45;80.85;100191.69;5092370;28;20040;-74
2023/04/23 11:31:57;;;;;;;5.63;2.50;;;;;;;17.16;79.42;100191.50;5089417;28;20105;-74
2023/04/23 11:41:45;;;;;;;5.68;2.45;;;;;;;16.51;81.66;100182.34;5095829;28;20039;-73
2023/04/23 11:44:11;;;;;;;10.30;2.97;;;;;;;16.53;85.55;100174.78;5072621;28;20153;-73
2023/04/23 11:46:37;;;;;;;6.15;2.35;;;;;;;16.09;94.01;100177.97;5095730;28;20082;-74
2023/04/23 11:49:02;;;;;;;3.65;2.00;;;;;;;15.75;95.56;100173.03;5077411;28;20464;-74
2023/04/23 11:51:28;;;;;;;7.60;2.20;;;;;;;15.56;95.68;100171.81;5072983;28;20063;-74
2023/04/23 11:53:53;;;;;;;4.83;2.20;;;;;;;15.81;95.45;100171.16;5095514;28;20340;-74
2023/04/23 11:56:19;;;;;;;4.70;2.15;;;;;;;16.24;96.64;100164.50;5072919;28;20340;-73
2023/04/23 11:58:45;;;;;;;4.60;2.35;;;;;;;16.49;92.44;100157.53;5095208;28;20032;-73
2023/04/23 12:04:32;;;;;;;7.57;2.90;;;;;;;18.31;89.31;100142.56;5090997;28;20089;-74
2023/04/23 12:10:23;;;;;;;5.30;2.35;;;;;;;19.17;79.78;100127.44;5095460;28;20076;-73
2023/04/23 12:12:52;;;;;;;4.28;2.10;;;;;;;19.57;75.18;100133.50;5094837;28;20059;-73
2023/04/23 12:15:18;;;;;;;7.75;2.83;;;;;;;19.19;74.34;100119.81;5072364;28;20392;-73
2023/04/23 12:17:50;;;;;;;5.43;2.85;;;;;;;18.92;74.21;100114.97;5076744;28;20043;-73
2023/04/23 12:20:18;;;;;;;5.13;2.33;;;;;;;19.15;81.14;100121.50;5091378;28;20384;-73
2023/04/23 12:22:44;;;;;;;5.35;2.42;;;;;;;19.00;79.04;100111.63;5094021;28;20278;-74
2023/04/23 12:25:10;;;;;;;4.97;2.15;;;;;;;18.71;77.89;100111.66;5076498;28;20106;-74
2023/04/23 12:27:41;;;;;;;6.20;2.22;;;;;;;18.41;78.84;100093.75;5072137;28;20036;-73
2023/04/23 12:30:07;;;;;;;6.57;2.13;;;;;;;18.11;75.39;100104.84;5076168;28;20082;-73
2023/04/23 12:35:54;;;;;;;4.78;1.92;;;;;;;17.58;74.01;100094.56;5092495;28;20043;-73
2023/04/23 12:38:27;;;;;;;4.13;2.00;;;;;;;17.37;75.72;100086.88;5071684;28;20469;-73
2023/04/23 12:44:14;;;;;;;10.25;2.53;;;;;;;17.46;76.23;100072.50;5094659;28;20126;-73
2023/04/23 12:46:39;;;;;;;6.43;2.80;;;;;;;17.56;76.32;100060.81;5086816;28;20115;-73
2023/04/23 12:52:27;;;;;;;5.55;1.90;;;;;;;17.71;79.16;100057.25;5094475;28;20272;-73
2023/04/23 12:54:55;;;;;;;6.68;1.80;;;;;;;18.14;72.54;100047.44;5094189;28;20107;-73
2023/04/23 13:00:45;;;;;;;7.55;2.30;;;;;;;17.75;72.31;100055.59;5094371;28;20125;-73
2023/04/23 13:03:12;;;;;;;8.65;3.08;;;;;;;17.35;73.81;100033.09;5089508;28;20119;-73
2023/04/23 13:05:37;;;;;;;4.72;2.30;;;;;;;17.21;73.38;100040.19;5093858;28;20081;-73
2023/04/23 13:08:03;;;;;;;5.87;2.27;;;;;;;17.25;74.86;100044.75;5093918;28;20024;-73
2023/04/23 13:10:29;;;;;;;6.57;2.10;;;;;;;17.34;74.08;100042.25;5089281;28;20274;-73
2023/04/23 13:16:16;;;;;;;5.10;1.85;;;;;;;17.47;70.59;100024.63;5094164;28;20124;-74
2023/04/23 13:18:41;;;;;;;6.25;1.88;;;;;;;17.68;70.58;100036.19;5093715;28;20127;-73
2023/04/23 13:21:08;;;;;;;3.87;2.00;;;;;;;17.39;67.07;100027.94;5071183;28;20055;-72
2023/04/23 13:23:34;;;;;;;4.18;1.80;;;;;;;17.23;67.59;100035.31;5093474;28;20274;-73
2023/04/23 13:25:59;;;;;;;6.78;2.10;;;;;;;17.26;70.97;100015.84;5093610;28;20114;-73
2023/04/23 13:31:46;;;;;;;6.63;2.63;;;;;;;17.13;75.75;100008.34;5093706;28;20105;-73
2023/04/23 13:41:02;;;;;;;5.50;1.95;;;;;;;16.73;71.81;100012.81;5093351;28;20096;-73
2023/04/23 13:43:27;;;;;;;5.13;2.53;;;;;;;16.65;70.85;99995.25;5093242;28;20094;-72
2023/04/23 13:45:53;;;;;;;4.93;2.13;;;;;;;16.66;72.81;99996.91;5088519;28;20162;-72
2023/04/23 13:48:18;;;;;;;5.88;2.22;;;;;;;16.47;73.23;99992.34;5093395;28;20277;-73
2023/04/23 13:50:44;;;;;;;6.05;1.98;;;;;;;16.24;72.79;99999.94;5073016;28;20036;-73
2023/04/23 13:53:10;;;;;;;8.85;1.83;;;;;;;16.22;73.31;99983.22;5090574;28;20032;-73
2023/04/23 13:55:35;;;;;;;6.05;1.58;;;;;;;16.40;73.56;99984.53;5093201;28;20472;-73
2023/04/23 13:58:02;;;;;;;3.70;2.15;;;;;;;16.14;73.21;99983.75;5088398;28;20098;-72
2023/04/23 14:00:28;;;;;;;4.97;2.10;;;;;;;15.71;76.37;99987.84;5074776;28;20028;-72